TimeBST,TemperatureF,Dew PointF,Humidity,Sea Level PressureIn,VisibilityMPH,Wind Direction,Wind SpeedMPH,Gust SpeedMPH,PrecipitationIn,Events,Conditions,WindDirDegrees,DateUTC
12:50 AM,64,57,73,30.15,7,ENE,3.5,,,,Partly Cloudy,60,2013-07-20 23:50:00
3:50 AM,58,53,77,30.13,9,NE,6.9,,,,,50,2013-07-21 02:50:00
4:50 AM,57.2,53.6,88,30.12,6.2,NE,6.9,-,N/A,,Partly Cloudy,40,2013-07-21 03:50:00
5:20 AM,59.0,53.6,82,30.09,6.2,NE,6.9,-,N/A,,Scattered Clouds,40,2013-07-21 04:20:00
5:50 AM,57.2,51.8,82,30.09,6.2,NE,6.9,-,N/A,,Scattered Clouds,40,2013-07-21 04:50:00
6:20 AM,59.0,53.6,82,30.09,6.2,NE,5.8,-,N/A,,Partly Cloudy,40,2013-07-21 05:20:00
6:50 AM,58,53,78,30.12,7,NNE,6.9,,,,,30,2013-07-21 05:50:00
6:50 AM,59.0,53.6,82,30.09,-9999.0,NE,6.9,-,N/A,,Clear,50,2013-07-21 05:50:00
7:20 AM,60.8,55.4,82,30.09,-9999.0,NE,6.9,-,N/A,,Clear,50,2013-07-21 06:20:00
7:50 AM,64.4,55.4,73,30.09,-9999.0,ENE,11.5,-,N/A,,Clear,60,2013-07-21 06:50:00
8:20 AM,66.2,57.2,73,30.09,-9999.0,ENE,10.4,-,N/A,,Clear,60,2013-07-21 07:20:00
8:50 AM,68.0,57.2,68,30.09,-9999.0,ENE,10.4,-,N/A,,Clear,70,2013-07-21 07:50:00
9:20 AM,69.8,59.0,68,30.09,-9999.0,ENE,11.5,-,N/A,,Clear,70,2013-07-21 08:20:00
9:50 AM,68,57,60,30.10,7,ENE,10.4,,,,,70,2013-07-21 08:50:00
9:50 AM,71.6,59.0,64,30.09,-9999.0,East,9.2,-,N/A,,Clear,80,2013-07-21 08:50:00
10:20 AM,73.4,59.0,61,30.06,-9999.0,East,11.5,-,N/A,,Clear,80,2013-07-21 09:20:00
10:50 AM,73.4,60.8,65,30.06,-9999.0,ENE,10.4,-,N/A,,Clear,70,2013-07-21 09:50:00
11:20 AM,77.0,60.8,57,30.06,-9999.0,ENE,10.4,-,N/A,,Clear,70,2013-07-21 10:20:00
11:50 AM,77.0,60.8,57,30.06,-9999.0,ENE,10.4,-,N/A,,Clear,70,2013-07-21 10:50:00
12:20 PM,78.8,60.8,54,30.06,-9999.0,ENE,10.4,-,N/A,,Clear,70,2013-07-21 11:20:00
12:50 PM,77,60,47,30.07,7,ENE,11.5,,,,,70,2013-07-21 11:50:00
12:50 PM,78.8,60.8,54,30.06,-9999.0,East,8.1,-,N/A,,Clear,80,2013-07-21 11:50:00
1:20 PM,80.6,60.8,51,30.04,-9999.0,ENE,8.1,-,N/A,,Clear,70,2013-07-21 12:20:00
1:50 PM,82.4,60.8,48,30.04,-9999.0,ENE,11.5,-,N/A,,Clear,60,2013-07-21 12:50:00
2:50 PM,82.4,60.8,48,30.04,-9999.0,East,8.1,-,N/A,,Clear,80,2013-07-21 13:50:00
3:20 PM,84.2,62.6,48,30.04,-9999.0,ENE,8.1,-,N/A,,Clear,70,2013-07-21 14:20:00
3:50 PM,83,58,33,30.04,9,SE,11.5,,,,Scattered Clouds,130,2013-07-21 14:50:00
3:50 PM,82.4,59.0,45,30.04,-9999.0,ESE,11.5,-,N/A,,Clear,120,2013-07-21 14:50:00
4:20 PM,84.2,57.2,40,30.01,-9999.0,SE,11.5,-,N/A,,Clear,130,2013-07-21 15:20:00
4:50 PM,82.4,59.0,45,30.01,-9999.0,South,11.5,-,N/A,,Clear,170,2013-07-21 15:50:00
5:20 PM,80.6,60.8,51,30.01,-9999.0,South,9.2,-,N/A,,Clear,170,2013-07-21 16:20:00
5:50 PM,78.8,60.8,54,30.01,-9999.0,South,8.1,-,N/A,,Clear,180,2013-07-21 16:50:00
6:20 PM,80.6,60.8,51,30.01,-9999.0,South,6.9,-,N/A,,Clear,170,2013-07-21 17:20:00
6:50 PM,81,61,40,30.00,9,ESE,6.9,,,,,120,2013-07-21 17:50:00
6:50 PM,80.6,60.8,51,29.98,-9999.0,ESE,6.9,-,N/A,,Clear,120,2013-07-21 17:50:00
7:20 PM,80.6,60.8,51,29.98,-9999.0,SSE,6.9,-,N/A,,Clear,150,2013-07-21 18:20:00
7:50 PM,78.8,62.6,57,29.98,-9999.0,SE,5.8,-,N/A,,Clear,130,2013-07-21 18:50:00
8:20 PM,78.8,62.6,57,29.98,-9999.0,SSE,3.5,-,N/A,,Clear,160,2013-07-21 19:20:00
8:50 PM,75.2,62.6,65,30.01,-9999.0,SSE,3.5,-,N/A,,Clear,160,2013-07-21 19:50:00
9:50 PM,73,62,61,30.01,6,ESE,5.8,,,,,110,2013-07-21 20:50:00